TENO2: Tenkiller Lake

Data processed at Fri Feb 16 2018 23:58


All information presented herein is the property of the government of the United States of America and may be revised or deleted at any time without prior notice.
Dissemination of this information without the expressed written consent of the Public Affairs Office, Tulsa District U.S. Army Corps of Engineers is strictly prohibited.
These data are gathered electronically and, as presented, have not undergone any form of quality control. These data are not guaranteed to be valid or correct.
Go to home page.
Go to station list.

Upstream stations:

Downstream station:
Previous Day
Next Day
Current Day
    
SHEF ID:       TENO2     Tenkiller Lake
STATION TYPE:  Reservoir
Normal Pool:  Bottom =   594.50, Top =   632.00

               PRECIP PRECIP(A) ELEVATION   STORAGE   TW-ELEV    INFLOW   RELEASE  AIR-TEMP  WIND-DIRWIND-SPEED REL-HUMID SOLAR-RAD   VOLTAGE  BAT-LOAD
                   in        in        ft     ac-ft        ft       cfs       cfs         F       deg       mph         %      W/m2      volt      volt
              Ccp-Rev   Ccp-Rev   Ccp-Rev   Ccp-Rev   Ccp-Rev  Regi-Rev  Regi-Rev   Ccp-Rev   Ccp-Rev   Ccp-Rev   Ccp-Rev   Ccp-Rev   Ccp-Rev   Ccp-Rev
(US/Central)
02/14 00:00      0.00      0.00    625.30    586234    482.10       563         0     44.94     98.70      1.34     76.43      1.00     13.72     13.30
02/14 01:00      0.00      0.00    625.31    586350    482.10       584         0     44.62    102.90      2.64     82.66      1.00     13.71     13.30
02/14 02:00      0.00      0.00    625.32    586466    482.10       595         0     42.85    122.40      0.71     97.67      1.00     13.71     13.30
02/14 03:00      0.00      0.00    625.32    586466    482.10       595         0     42.62    254.40      0.20     99.44      0.00     13.72     13.30
02/14 04:00      0.00      0.00    625.32    586466    482.10       313         0     42.75    215.00      0.17     99.62      0.00     13.72     13.36
02/14 05:00      0.00      0.00    625.31    586350    482.09        31         0     43.18    285.90      0.10     99.44      0.00     13.72     13.36
02/14 06:00      0.00      0.00    625.33    586583    482.09        10         0     44.49    183.60      0.05     99.38      0.00     13.72     13.36
02/14 07:00      0.00      0.00    625.32    586466    482.09         0         0     44.17    241.80      0.11     99.50      0.00     13.72     13.30
02/14 08:00      0.00      0.00    625.32    586466    482.09       282         0     45.05    336.60      0.03     99.62      6.00     13.72     13.36
02/14 09:00      0.00      0.00    625.32    586466    482.09       282         0     46.04     17.50      0.11     99.87     23.00     13.71     13.24
02/14 10:00      0.00      0.00    625.33    586583    482.09       282         0     47.03     58.60      0.18     99.94     54.00     13.73     13.30
02/14 11:00      0.00      0.00    625.35    586816    482.09       282         0     49.98    150.40      0.14     99.80    101.00     13.73     13.12
02/14 12:00      0.00      0.00    625.33    586583    482.09       282         0     52.63    174.60      0.55     99.26    154.00     13.73     13.12
02/14 13:00      0.00      0.00    625.34    586699    482.08         0         0     58.68    226.20      1.73     81.61    256.00     13.73     13.18
02/14 14:00      0.00      0.00    625.33    586583    482.08         0         0     66.25    209.50      1.45     60.62    339.00     13.73     13.18
02/14 15:00      0.00      0.00    625.36    586932    482.08         0         0     65.93    232.40      4.42     71.24    431.00     13.73     13.12
02/14 16:00      0.00      0.00    625.33    586583    482.08         0         0     68.00    223.70      3.03     67.94    349.00     13.73     13.12
02/14 17:00      0.00      0.00    625.34    586699    482.70       868         0     67.57    237.50      3.18     70.02    190.00     13.73     13.18
02/14 18:00      0.00      0.00    625.29    586117    486.84       868      3422     64.27    230.30      2.01     81.49     40.00     13.72     13.30
02/14 19:00      0.00      0.00    625.31    586350    486.92       868      3713     62.62    218.40      0.48     88.02      1.00     13.73     13.36
02/14 20:00      0.00      0.00    625.27    585885    486.58       868      3612     61.09    217.90      0.72     91.38      1.00     13.72     13.30
02/14 21:00      0.00      0.00    625.30    586234    482.53       962       548     60.53    221.10      1.77     93.76      1.00     13.73     13.30
02/14 22:00      0.00      0.00    625.27    585885    482.18       188         0     60.31    229.80      1.42     94.31      1.00     13.73     13.18
02/14 23:00      0.00      0.00    625.27    585885    482.14       282         0     60.66    242.40      0.61     94.98      0.00     13.72     13.30